sensor_id;sensor_type;location;lat;lon;timestamp;temperature;humidity
14016;DHT22;7083;48.854;9.158;2022-09-01T00:00:06;14.30;99.90
14016;DHT22;7083;48.854;9.158;2022-09-01T00:02:35;14.30;99.90
14016;DHT22;7083;48.854;9.158;2022-09-01T00:05:02;14.30;99.90
14016;DHT22;7083;48.854;9.158;2022-09-01T00:07:32;14.30;99.90
14016;DHT22;7083;48.854;9.158;2022-09-01T00:10:00;14.20;99.90
14016;DHT22;7083;48.854;9.158;2022-09-01T00:12:28;13.90;99.90
14016;DHT22;7083;48.854;9.158;2022-09-01T00:14:56;14.20;99.90
14016;DHT22;7083;48.854;9.158;2022-09-01T00:17:23;13.90;99.90
14016;DHT22;7083;48.854;9.158;2022-09-01T00:19:51;14.20;99.90
14016;DHT22;7083;48.854;9.158;2022-09-01T00:22:18;14.20;99.90
14016;DHT22;7083;48.854;9.158;2022-09-01T00:24:45;14.20;99.90
14016;DHT22;7083;48.854;9.158;2022-09-01T00:27:11;13.90;99.90
14016;DHT22;7083;48.854;9.158;2022-09-01T00:29:38;14.20;99.90
14016;DHT22;7083;48.854;9.158;2022-09-01T00:32:05;14.10;99.90
14016;DHT22;7083;48.854;9.158;2022-09-01T00:34:32;14.30;99.90
14016;DHT22;7083;48.854;9.158;2022-09-01T00:37:00;14.10;99.90
14016;DHT22;7083;48.854;9.158;2022-09-01T00:39:30;14.10;99.90
14016;DHT22;7083;48.854;9.158;2022-09-01T00:41:57;14.30;99.90
14016;DHT22;7083;48.854;9.158;2022-09-01T00:44:24;14.20;99.90
14016;DHT22;7083;48.854;9.158;2022-09-01T00:46:53;14.10;99.90
14016;DHT22;7083;48.854;9.158;2022-09-01T00:49:26;14.10;99.90
14016;DHT22;7083;48.854;9.158;2022-09-01T00:51:58;14.10;99.90
14016;DHT22;7083;48.854;9.158;2022-09-01T00:54:31;14.10;99.90
14016;DHT22;7083;48.854;9.158;2022-09-01T00:56:58;14.20;99.90
14016;DHT22;7083;48.854;9.158;2022-09-01T00:59:26;14.10;99.90
14016;DHT22;7083;48.854;9.158;2022-09-01T01:01:53;14.10;99.90
14016;DHT22;7083;48.854;9.158;2022-09-01T01:04:21;13.60;99.90
14016;DHT22;7083;48.854;9.158;2022-09-01T01:06:51;14.10;99.90
14016;DHT22;7083;48.854;9.158;2022-09-01T01:09:24;14.10;99.90
14016;DHT22;7083;48.854;9.158;2022-09-01T01:11:52;14.10;99.90
14016;DHT22;7083;48.854;9.158;2022-09-01T01:14:23;14.10;99.90
14016;DHT22;7083;48.854;9.158;2022-09-01T01:16:52;14.20;99.90
14016;DHT22;7083;48.854;9.158;2022-09-01T01:19:24;14.20;99.90
14016;DHT22;7083;48.854;9.158;2022-09-01T01:22:15;14.20;99.90
14016;DHT22;7083;48.854;9.158;2022-09-01T01:25:03;14.20;99.90
14016;DHT22;7083;48.854;9.158;2022-09-01T01:27:31;14.30;99.90
14016;DHT22;7083;48.854;9.158;2022-09-01T01:29:59;14.40;99.90
14016;DHT22;7083;48.854;9.158;2022-09-01T01:32:26;13.90;99.90
14016;DHT22;7083;48.854;9.158;2022-09-01T01:34:53;14.30;99.90
14016;DHT22;7083;48.854;9.158;2022-09-01T01:37:21;13.90;99.90
14016;DHT22;7083;48.854;9.158;2022-09-01T01:39:48;14.20;99.90
14016;DHT22;7083;48.854;9.158;2022-09-01T01:42:16;14.10;99.90
14016;DHT22;7083;48.854;9.158;2022-09-01T01:44:43;14.20;99.90
14016;DHT22;7083;48.854;9.158;2022-09-01T01:47:11;14.10;99.90
14016;DHT22;7083;48.854;9.158;2022-09-01T01:49:39;13.80;99.90
14016;DHT22;7083;48.854;9.158;2022-09-01T01:52:09;14.00;99.90
14016;DHT22;7083;48.854;9.158;2022-09-01T01:54:39;13.70;99.90
14016;DHT22;7083;48.854;9.158;2022-09-01T01:57:06;14.00;99.90
14016;DHT22;7083;48.854;9.158;2022-09-01T01:59:34;13.90;99.90
14016;DHT22;7083;48.854;9.158;2022-09-01T02:02:03;13.90;99.90
14016;DHT22;7083;48.854;9.158;2022-09-01T02:04:35;14.80;99.90
14016;DHT22;7083;48.854;9.158;2022-09-01T02:07:01;14.00;99.90
14016;DHT22;7083;48.854;9.158;2022-09-01T02:09:28;14.00;99.90
14016;DHT22;7083;48.854;9.158;2022-09-01T02:11:55;13.90;99.90
14016;DHT22;7083;48.854;9.158;2022-09-01T02:14:23;13.90;99.90
14016;DHT22;7083;48.854;9.158;2022-09-01T02:16:51;13.80;99.90
14016;DHT22;7083;48.854;9.158;2022-09-01T02:19:20;13.80;99.90
14016;DHT22;7083;48.854;9.158;2022-09-01T02:21:47;13.80;99.90
14016;DHT22;7083;48.854;9.158;2022-09-01T02:24:19;13.80;99.90
14016;DHT22;7083;48.854;9.158;2022-09-01T02:26:46;13.80;99.90
14016;DHT22;7083;48.854;9.158;2022-09-01T02:29:15;13.80;99.90
14016;DHT22;7083;48.854;9.158;2022-09-01T02:31:44;13.80;99.90
14016;DHT22;7083;48.854;9.158;2022-09-01T02:34:13;13.80;99.90
14016;DHT22;7083;48.854;9.158;2022-09-01T02:36:41;13.90;99.90
14016;DHT22;7083;48.854;9.158;2022-09-01T02:39:12;13.90;99.90
14016;DHT22;7083;48.854;9.158;2022-09-01T02:41:39;13.90;99.90
14016;DHT22;7083;48.854;9.158;2022-09-01T02:44:06;13.80;99.90
14016;DHT22;7083;48.854;9.158;2022-09-01T02:46:36;13.80;99.90
14016;DHT22;7083;48.854;9.158;2022-09-01T02:49:07;13.80;99.90
14016;DHT22;7083;48.854;9.158;2022-09-01T02:51:41;13.70;99.90
14016;DHT22;7083;48.854;9.158;2022-09-01T02:54:08;13.70;99.90
14016;DHT22;7083;48.854;9.158;2022-09-01T02:56:35;13.70;99.90
14016;DHT22;7083;48.854;9.158;2022-09-01T02:59:02;13.60;99.90
14016;DHT22;7083;48.854;9.158;2022-09-01T03:01:30;13.60;99.90
14016;DHT22;7083;48.854;9.158;2022-09-01T03:03:59;13.60;99.90
14016;DHT22;7083;48.854;9.158;2022-09-01T03:06:26;13.60;99.90
14016;DHT22;7083;48.854;9.158;2022-09-01T03:08:57;13.50;99.90
14016;DHT22;7083;48.854;9.158;2022-09-01T03:11:25;13.50;99.90
14016;DHT22;7083;48.854;9.158;2022-09-01T03:13:52;13.50;99.90
14016;DHT22;7083;48.854;9.158;2022-09-01T03:16:19;13.50;99.90
14016;DHT22;7083;48.854;9.158;2022-09-01T03:18:46;13.40;99.90
14016;DHT22;7083;48.854;9.158;2022-09-01T03:21:14;13.40;99.90
14016;DHT22;7083;48.854;9.158;2022-09-01T03:23:42;13.40;99.90
14016;DHT22;7083;48.854;9.158;2022-09-01T03:26:10;13.40;99.90
14016;DHT22;7083;48.854;9.158;2022-09-01T03:28:37;13.30;99.90
14016;DHT22;7083;48.854;9.158;2022-09-01T03:31:05;13.30;99.90
14016;DHT22;7083;48.854;9.158;2022-09-01T03:33:33;13.30;99.90
14016;DHT22;7083;48.854;9.158;2022-09-01T03:36:01;13.30;99.90
14016;DHT22;7083;48.854;9.158;2022-09-01T03:38:27;13.30;99.90
14016;DHT22;7083;48.854;9.158;2022-09-01T03:40:59;13.30;99.90
14016;DHT22;7083;48.854;9.158;2022-09-01T03:43:29;13.30;99.90
14016;DHT22;7083;48.854;9.158;2022-09-01T03:45:57;13.30;99.90
14016;DHT22;7083;48.854;9.158;2022-09-01T03:48:25;13.30;99.90
14016;DHT22;7083;48.854;9.158;2022-09-01T03:50:53;13.30;99.90
14016;DHT22;7083;48.854;9.158;2022-09-01T03:53:21;13.30;99.90
14016;DHT22;7083;48.854;9.158;2022-09-01T03:55:49;13.30;99.90
14016;DHT22;7083;48.854;9.158;2022-09-01T03:58:18;13.30;99.90
14016;DHT22;7083;48.854;9.158;2022-09-01T04:00:49;13.30;99.90
14016;DHT22;7083;48.854;9.158;2022-09-01T04:03:20;13.30;99.90
14016;DHT22;7083;48.854;9.158;2022-09-01T04:05:49;13.30;99.90
14016;DHT22;7083;48.854;9.158;2022-09-01T04:08:19;13.30;99.90
14016;DHT22;7083;48.854;9.158;2022-09-01T04:10:48;13.30;99.90
14016;DHT22;7083;48.854;9.158;2022-09-01T04:13:17;13.30;99.90
14016;DHT22;7083;48.854;9.158;2022-09-01T04:15:44;13.30;99.90
14016;DHT22;7083;48.854;9.158;2022-09-01T04:18:12;13.30;99.90
14016;DHT22;7083;48.854;9.158;2022-09-01T04:20:47;13.20;99.90
14016;DHT22;7083;48.854;9.158;2022-09-01T04:23:17;13.20;99.90
14016;DHT22;7083;48.854;9.158;2022-09-01T04:25:47;13.20;99.90
14016;DHT22;7083;48.854;9.158;2022-09-01T04:28:15;13.20;99.90
14016;DHT22;7083;48.854;9.158;2022-09-01T04:30:48;13.20;99.90
14016;DHT22;7083;48.854;9.158;2022-09-01T04:33:17;13.20;99.90
14016;DHT22;7083;48.854;9.158;2022-09-01T04:35:43;13.30;99.90
14016;DHT22;7083;48.854;9.158;2022-09-01T04:38:10;13.30;99.90
14016;DHT22;7083;48.854;9.158;2022-09-01T04:40:41;13.40;99.90
14016;DHT22;7083;48.854;9.158;2022-09-01T04:43:08;13.40;99.90
14016;DHT22;7083;48.854;9.158;2022-09-01T04:45:35;13.40;99.90
14016;DHT22;7083;48.854;9.158;2022-09-01T04:48:04;13.40;99.90
14016;DHT22;7083;48.854;9.158;2022-09-01T04:50:33;13.40;99.90
14016;DHT22;7083;48.854;9.158;2022-09-01T04:53:01;13.40;99.90
14016;DHT22;7083;48.854;9.158;2022-09-01T04:55:30;13.40;99.90
14016;DHT22;7083;48.854;9.158;2022-09-01T04:57:59;13.40;99.90
14016;DHT22;7083;48.854;9.158;2022-09-01T05:00:28;13.40;99.90
14016;DHT22;7083;48.854;9.158;2022-09-01T05:02:58;13.40;99.90
14016;DHT22;7083;48.854;9.158;2022-09-01T05:05:29;13.40;99.90
14016;DHT22;7083;48.854;9.158;2022-09-01T05:07:58;13.40;99.90
14016;DHT22;7083;48.854;9.158;2022-09-01T05:10:25;13.40;99.90
14016;DHT22;7083;48.854;9.158;2022-09-01T05:12:54;13.40;99.90
14016;DHT22;7083;48.854;9.158;2022-09-01T05:15:21;13.40;99.90
14016;DHT22;7083;48.854;9.158;2022-09-01T05:17:48;13.40;99.90
14016;DHT22;7083;48.854;9.158;2022-09-01T05:20:17;13.40;99.90
14016;DHT22;7083;48.854;9.158;2022-09-01T05:22:45;13.40;99.90
14016;DHT22;7083;48.854;9.158;2022-09-01T05:25:13;13.40;99.90
14016;DHT22;7083;48.854;9.158;2022-09-01T05:27:41;13.40;99.90
14016;DHT22;7083;48.854;9.158;2022-09-01T05:30:10;13.40;99.90
14016;DHT22;7083;48.854;9.158;2022-09-01T05:32:37;13.40;99.90
14016;DHT22;7083;48.854;9.158;2022-09-01T05:35:05;13.50;99.90
14016;DHT22;7083;48.854;9.158;2022-09-01T05:37:34;13.50;99.90
14016;DHT22;7083;48.854;9.158;2022-09-01T05:40:03;13.50;99.90
14016;DHT22;7083;48.854;9.158;2022-09-01T05:42:31;13.60;99.90
14016;DHT22;7083;48.854;9.158;2022-09-01T05:44:58;13.60;99.90
14016;DHT22;7083;48.854;9.158;2022-09-01T05:47:26;13.50;99.90
14016;DHT22;7083;48.854;9.158;2022-09-01T05:49:53;13.70;99.90
14016;DHT22;7083;48.854;9.158;2022-09-01T05:52:20;13.80;99.90
14016;DHT22;7083;48.854;9.158;2022-09-01T05:54:51;13.80;99.90
14016;DHT22;7083;48.854;9.158;2022-09-01T05:57:17;13.80;99.90
14016;DHT22;7083;48.854;9.158;2022-09-01T05:59:46;13.90;99.90
14016;DHT22;7083;48.854;9.158;2022-09-01T06:02:18;14.00;99.90
14016;DHT22;7083;48.854;9.158;2022-09-01T06:04:46;14.00;99.90
14016;DHT22;7083;48.854;9.158;2022-09-01T06:07:15;14.10;99.90
14016;DHT22;7083;48.854;9.158;2022-09-01T06:09:44;14.20;99.90
14016;DHT22;7083;48.854;9.158;2022-09-01T06:12:12;14.20;99.90
14016;DHT22;7083;48.854;9.158;2022-09-01T06:14:43;14.20;99.90
14016;DHT22;7083;48.854;9.158;2022-09-01T06:17:11;14.30;99.90
14016;DHT22;7083;48.854;9.158;2022-09-01T06:19:40;14.40;99.90
14016;DHT22;7083;48.854;9.158;2022-09-01T06:22:08;14.40;99.90
14016;DHT22;7083;48.854;9.158;2022-09-01T06:24:35;14.50;99.90
14016;DHT22;7083;48.854;9.158;2022-09-01T06:27:04;14.50;99.90
14016;DHT22;7083;48.854;9.158;2022-09-01T06:29:34;14.60;99.90
14016;DHT22;7083;48.854;9.158;2022-09-01T06:32:04;14.70;99.90
14016;DHT22;7083;48.854;9.158;2022-09-01T06:34:35;14.70;99.90
14016;DHT22;7083;48.854;9.158;2022-09-01T06:37:02;14.70;99.90
14016;DHT22;7083;48.854;9.158;2022-09-01T06:39:28;14.80;99.90
14016;DHT22;7083;48.854;9.158;2022-09-01T06:41:56;14.90;99.90
14016;DHT22;7083;48.854;9.158;2022-09-01T06:44:23;14.90;99.90
14016;DHT22;7083;48.854;9.158;2022-09-01T06:46:51;15.00;99.90
14016;DHT22;7083;48.854;9.158;2022-09-01T06:49:18;15.00;99.90
14016;DHT22;7083;48.854;9.158;2022-09-01T06:51:47;15.10;99.90
14016;DHT22;7083;48.854;9.158;2022-09-01T06:54:14;15.10;99.90
14016;DHT22;7083;48.854;9.158;2022-09-01T06:56:41;15.20;99.90
14016;DHT22;7083;48.854;9.158;2022-09-01T06:59:08;15.30;99.90
14016;DHT22;7083;48.854;9.158;2022-09-01T07:01:40;15.30;99.90
14016;DHT22;7083;48.854;9.158;2022-09-01T07:04:06;15.70;99.90
14016;DHT22;7083;48.854;9.158;2022-09-01T07:06:34;15.30;99.90
14016;DHT22;7083;48.854;9.158;2022-09-01T07:09:03;15.60;99.90
14016;DHT22;7083;48.854;9.158;2022-09-01T07:11:31;15.60;99.90
14016;DHT22;7083;48.854;9.158;2022-09-01T07:14:00;15.70;99.90
14016;DHT22;7083;48.854;9.158;2022-09-01T07:16:29;15.80;99.90
14016;DHT22;7083;48.854;9.158;2022-09-01T07:19:00;16.00;99.90
14016;DHT22;7083;48.854;9.158;2022-09-01T07:21:28;16.10;99.90
14016;DHT22;7083;48.854;9.158;2022-09-01T07:23:56;16.20;99.90
14016;DHT22;7083;48.854;9.158;2022-09-01T07:26:27;16.30;99.90
14016;DHT22;7083;48.854;9.158;2022-09-01T07:28:54;16.40;99.90
14016;DHT22;7083;48.854;9.158;2022-09-01T07:31:23;16.60;99.90
14016;DHT22;7083;48.854;9.158;2022-09-01T07:33:52;16.70;99.90
14016;DHT22;7083;48.854;9.158;2022-09-01T07:36:19;16.90;99.90
14016;DHT22;7083;48.854;9.158;2022-09-01T07:38:47;17.00;99.90
14016;DHT22;7083;48.854;9.158;2022-09-01T07:41:16;17.10;99.90
14016;DHT22;7083;48.854;9.158;2022-09-01T07:43:44;17.10;99.90
14016;DHT22;7083;48.854;9.158;2022-09-01T07:46:11;17.20;99.90
14016;DHT22;7083;48.854;9.158;2022-09-01T07:48:38;17.40;99.90
14016;DHT22;7083;48.854;9.158;2022-09-01T07:51:05;17.50;99.90
14016;DHT22;7083;48.854;9.158;2022-09-01T07:53:33;17.70;99.90
14016;DHT22;7083;48.854;9.158;2022-09-01T07:56:09;17.80;99.90
14016;DHT22;7083;48.854;9.158;2022-09-01T07:58:37;17.90;99.90
14016;DHT22;7083;48.854;9.158;2022-09-01T08:01:07;17.90;99.90
14016;DHT22;7083;48.854;9.158;2022-09-01T08:03:34;17.90;99.90
14016;DHT22;7083;48.854;9.158;2022-09-01T08:06:03;17.60;99.90
14016;DHT22;7083;48.854;9.158;2022-09-01T08:08:31;18.00;99.90
14016;DHT22;7083;48.854;9.158;2022-09-01T08:10:58;17.80;99.90
14016;DHT22;7083;48.854;9.158;2022-09-01T08:13:25;18.10;99.90
14016;DHT22;7083;48.854;9.158;2022-09-01T08:15:52;18.30;99.90
14016;DHT22;7083;48.854;9.158;2022-09-01T08:18:20;18.30;99.90
14016;DHT22;7083;48.854;9.158;2022-09-01T08:20:47;18.50;99.90
14016;DHT22;7083;48.854;9.158;2022-09-01T08:23:16;18.70;99.90
14016;DHT22;7083;48.854;9.158;2022-09-01T08:25:45;18.90;99.90
14016;DHT22;7083;48.854;9.158;2022-09-01T08:28:13;19.10;99.90
14016;DHT22;7083;48.854;9.158;2022-09-01T08:30:41;19.10;99.90
14016;DHT22;7083;48.854;9.158;2022-09-01T08:33:08;19.10;99.90
14016;DHT22;7083;48.854;9.158;2022-09-01T08:35:39;19.20;99.90
14016;DHT22;7083;48.854;9.158;2022-09-01T08:38:06;19.20;99.90
14016;DHT22;7083;48.854;9.158;2022-09-01T08:40:33;19.30;99.90
14016;DHT22;7083;48.854;9.158;2022-09-01T08:43:07;19.40;99.90
14016;DHT22;7083;48.854;9.158;2022-09-01T08:45:43;19.50;99.90
14016;DHT22;7083;48.854;9.158;2022-09-01T08:48:15;19.60;99.90
14016;DHT22;7083;48.854;9.158;2022-09-01T08:50:46;19.60;99.90
14016;DHT22;7083;48.854;9.158;2022-09-01T08:53:21;19.60;99.90
14016;DHT22;7083;48.854;9.158;2022-09-01T08:55:54;19.70;99.90
14016;DHT22;7083;48.854;9.158;2022-09-01T08:58:22;19.70;99.90
14016;DHT22;7083;48.854;9.158;2022-09-01T09:00:54;19.70;99.90
14016;DHT22;7083;48.854;9.158;2022-09-01T09:03:29;19.80;99.90
14016;DHT22;7083;48.854;9.158;2022-09-01T09:06:06;19.90;99.90
14016;DHT22;7083;48.854;9.158;2022-09-01T09:08:55;19.90;99.90
14016;DHT22;7083;48.854;9.158;2022-09-01T09:11:47;19.90;99.90
14016;DHT22;7083;48.854;9.158;2022-09-01T09:14:26;19.90;99.90
14016;DHT22;7083;48.854;9.158;2022-09-01T09:16:55;20.00;99.90
14016;DHT22;7083;48.854;9.158;2022-09-01T09:19:26;20.10;99.90
14016;DHT22;7083;48.854;9.158;2022-09-01T09:21:56;20.10;99.90
14016;DHT22;7083;48.854;9.158;2022-09-01T09:24:26;20.30;99.90
14016;DHT22;7083;48.854;9.158;2022-09-01T09:26:55;20.40;99.90
14016;DHT22;7083;48.854;9.158;2022-09-01T09:29:23;20.40;97.90
14016;DHT22;7083;48.854;9.158;2022-09-01T09:32:01;20.40;99.10
14016;DHT22;7083;48.854;9.158;2022-09-01T09:34:31;20.30;97.00
14016;DHT22;7083;48.854;9.158;2022-09-01T09:37:19;20.40;97.50
14016;DHT22;7083;48.854;9.158;2022-09-01T09:40:03;20.30;97.50
14016;DHT22;7083;48.854;9.158;2022-09-01T09:42:30;20.20;97.90
14016;DHT22;7083;48.854;9.158;2022-09-01T09:44:57;20.10;99.10
14016;DHT22;7083;48.854;9.158;2022-09-01T09:47:35;20.10;98.20
14016;DHT22;7083;48.854;9.158;2022-09-01T09:50:21;20.10;98.40
14016;DHT22;7083;48.854;9.158;2022-09-01T09:52:51;20.20;98.30
14016;DHT22;7083;48.854;9.158;2022-09-01T09:55:28;20.40;98.00
14016;DHT22;7083;48.854;9.158;2022-09-01T09:57:58;20.50;96.60
14016;DHT22;7083;48.854;9.158;2022-09-01T10:00:28;20.60;96.20
14016;DHT22;7083;48.854;9.158;2022-09-01T10:02:58;20.50;95.00
14016;DHT22;7083;48.854;9.158;2022-09-01T10:05:37;20.60;95.90
14016;DHT22;7083;48.854;9.158;2022-09-01T10:08:08;20.70;95.70
14016;DHT22;7083;48.854;9.158;2022-09-01T10:10:40;20.80;95.70
14016;DHT22;7083;48.854;9.158;2022-09-01T10:13:12;20.70;94.50
14016;DHT22;7083;48.854;9.158;2022-09-01T10:15:40;20.90;94.80
14016;DHT22;7083;48.854;9.158;2022-09-01T10:18:13;20.20;94.20
14016;DHT22;7083;48.854;9.158;2022-09-01T10:20:44;21.10;95.30
14016;DHT22;7083;48.854;9.158;2022-09-01T10:23:15;21.20;94.20
14016;DHT22;7083;48.854;9.158;2022-09-01T10:25:42;21.40;93.30
14016;DHT22;7083;48.854;9.158;2022-09-01T10:28:13;21.20;93.00
14016;DHT22;7083;48.854;9.158;2022-09-01T10:30:43;21.10;92.70
14016;DHT22;7083;48.854;9.158;2022-09-01T10:33:12;21.20;93.00
14016;DHT22;7083;48.854;9.158;2022-09-01T10:35:42;21.20;93.50
14016;DHT22;7083;48.854;9.158;2022-09-01T10:38:16;21.30;92.40
14016;DHT22;7083;48.854;9.158;2022-09-01T10:40:46;21.60;93.10
14016;DHT22;7083;48.854;9.158;2022-09-01T10:43:39;21.50;92.10
14016;DHT22;7083;48.854;9.158;2022-09-01T10:46:09;21.50;92.70
14016;DHT22;7083;48.854;9.158;2022-09-01T10:48:40;21.60;92.30
14016;DHT22;7083;48.854;9.158;2022-09-01T10:51:42;20.40;91.10
14016;DHT22;7083;48.854;9.158;2022-09-01T10:57:34;21.90;92.60
14016;DHT22;7083;48.854;9.158;2022-09-01T11:03:32;21.80;91.40
14016;DHT22;7083;48.854;9.158;2022-09-01T11:05:59;21.80;91.50
14016;DHT22;7083;48.854;9.158;2022-09-01T11:08:40;21.90;91.80
14016;DHT22;7083;48.854;9.158;2022-09-01T11:11:22;21.80;91.10
14016;DHT22;7083;48.854;9.158;2022-09-01T11:13:53;22.00;91.40
14016;DHT22;7083;48.854;9.158;2022-09-01T11:16:29;22.10;90.80
14016;DHT22;7083;48.854;9.158;2022-09-01T11:19:30;22.30;90.80
14016;DHT22;7083;48.854;9.158;2022-09-01T11:22:23;22.40;90.00
14016;DHT22;7083;48.854;9.158;2022-09-01T11:25:08;22.50;90.50
14016;DHT22;7083;48.854;9.158;2022-09-01T11:27:55;22.50;89.60
14016;DHT22;7083;48.854;9.158;2022-09-01T11:30:24;22.30;89.00
14016;DHT22;7083;48.854;9.158;2022-09-01T11:33:07;22.10;90.00
14016;DHT22;7083;48.854;9.158;2022-09-01T11:35:37;22.30;90.60
14016;DHT22;7083;48.854;9.158;2022-09-01T11:38:06;22.30;90.30
14016;DHT22;7083;48.854;9.158;2022-09-01T11:40:35;22.50;90.60
14016;DHT22;7083;48.854;9.158;2022-09-01T11:43:06;22.80;88.40
14016;DHT22;7083;48.854;9.158;2022-09-01T11:45:37;22.80;87.80
14016;DHT22;7083;48.854;9.158;2022-09-01T11:48:10;23.00;87.40
14016;DHT22;7083;48.854;9.158;2022-09-01T11:50:40;23.20;85.90
14016;DHT22;7083;48.854;9.158;2022-09-01T11:53:11;23.30;86.20
14016;DHT22;7083;48.854;9.158;2022-09-01T11:55:40;23.40;85.60
14016;DHT22;7083;48.854;9.158;2022-09-01T11:58:12;23.50;86.60
14016;DHT22;7083;48.854;9.158;2022-09-01T12:00:41;23.50;85.20
14016;DHT22;7083;48.854;9.158;2022-09-01T12:03:19;23.60;86.20
14016;DHT22;7083;48.854;9.158;2022-09-01T12:05:51;23.90;82.80
14016;DHT22;7083;48.854;9.158;2022-09-01T12:08:19;23.80;84.30
14016;DHT22;7083;48.854;9.158;2022-09-01T12:10:47;23.30;82.00
14016;DHT22;7083;48.854;9.158;2022-09-01T12:13:20;23.90;80.70
14016;DHT22;7083;48.854;9.158;2022-09-01T12:15:53;24.20;81.60
14016;DHT22;7083;48.854;9.158;2022-09-01T12:18:23;24.30;81.00
14016;DHT22;7083;48.854;9.158;2022-09-01T12:20:52;24.10;82.60
14016;DHT22;7083;48.854;9.158;2022-09-01T12:23:24;24.40;81.80
14016;DHT22;7083;48.854;9.158;2022-09-01T12:25:52;24.30;79.40
14016;DHT22;7083;48.854;9.158;2022-09-01T12:28:22;24.20;80.20
14016;DHT22;7083;48.854;9.158;2022-09-01T12:30:49;23.90;79.20
14016;DHT22;7083;48.854;9.158;2022-09-01T12:33:18;24.00;80.70
14016;DHT22;7083;48.854;9.158;2022-09-01T12:35:46;24.30;80.00
14016;DHT22;7083;48.854;9.158;2022-09-01T12:38:20;24.20;79.90
14016;DHT22;7083;48.854;9.158;2022-09-01T12:40:49;24.30;80.40
14016;DHT22;7083;48.854;9.158;2022-09-01T12:43:37;24.50;78.70
14016;DHT22;7083;48.854;9.158;2022-09-01T12:46:06;24.30;80.20
14016;DHT22;7083;48.854;9.158;2022-09-01T12:48:34;24.30;79.70
14016;DHT22;7083;48.854;9.158;2022-09-01T12:51:03;24.40;77.90
14016;DHT22;7083;48.854;9.158;2022-09-01T12:53:33;24.70;78.90
14016;DHT22;7083;48.854;9.158;2022-09-01T12:56:18;24.70;77.70
14016;DHT22;7083;48.854;9.158;2022-09-01T12:58:49;24.60;78.40
14016;DHT22;7083;48.854;9.158;2022-09-01T13:01:29;24.60;79.90
14016;DHT22;7083;48.854;9.158;2022-09-01T13:07:00;24.70;78.50
14016;DHT22;7083;48.854;9.158;2022-09-01T13:09:27;24.70;78.40
14016;DHT22;7083;48.854;9.158;2022-09-01T13:12:08;24.50;79.20
14016;DHT22;7083;48.854;9.158;2022-09-01T13:14:36;24.10;79.40
14016;DHT22;7083;48.854;9.158;2022-09-01T13:17:03;23.80;78.90
14016;DHT22;7083;48.854;9.158;2022-09-01T13:19:30;24.10;81.50
14016;DHT22;7083;48.854;9.158;2022-09-01T13:21:57;23.60;82.60
14016;DHT22;7083;48.854;9.158;2022-09-01T13:24:24;23.20;80.60
14016;DHT22;7083;48.854;9.158;2022-09-01T14:16:11;23.00;82.90
14016;DHT22;7083;48.854;9.158;2022-09-01T14:18:39;28.40;67.50
14016;DHT22;7083;48.854;9.158;2022-09-01T14:21:10;29.60;60.40
14016;DHT22;7083;48.854;9.158;2022-09-01T14:23:38;31.40;59.40
14016;DHT22;7083;48.854;9.158;2022-09-01T14:26:08;32.70;55.70
14016;DHT22;7083;48.854;9.158;2022-09-01T14:28:36;33.70;54.60
14016;DHT22;7083;48.854;9.158;2022-09-01T14:31:06;34.60;51.50
14016;DHT22;7083;48.854;9.158;2022-09-01T14:33:33;35.30;49.90
14016;DHT22;7083;48.854;9.158;2022-09-01T14:36:00;35.20;50.30
14016;DHT22;7083;48.854;9.158;2022-09-01T14:38:27;35.80;50.70
14016;DHT22;7083;48.854;9.158;2022-09-01T14:40:55;35.90;47.70
14016;DHT22;7083;48.854;9.158;2022-09-01T14:43:22;35.70;49.60
14016;DHT22;7083;48.854;9.158;2022-09-01T14:46:01;35.60;49.60
14016;DHT22;7083;48.854;9.158;2022-09-01T14:48:31;36.10;48.10
14016;DHT22;7083;48.854;9.158;2022-09-01T15:45:20;35.90;48.00
14016;DHT22;7083;48.854;9.158;2022-09-01T15:47:49;33.50;50.80
14016;DHT22;7083;48.854;9.158;2022-09-01T15:52:49;32.10;52.30
14016;DHT22;7083;48.854;9.158;2022-09-01T15:55:18;32.00;51.70
14016;DHT22;7083;48.854;9.158;2022-09-01T15:57:45;32.50;50.20
14016;DHT22;7083;48.854;9.158;2022-09-01T16:00:13;32.70;50.60
14016;DHT22;7083;48.854;9.158;2022-09-01T16:02:40;32.60;50.40
14016;DHT22;7083;48.854;9.158;2022-09-01T16:05:09;31.80;51.90
14016;DHT22;7083;48.854;9.158;2022-09-01T16:07:36;30.50;54.40
14016;DHT22;7083;48.854;9.158;2022-09-01T16:10:04;29.80;56.20
14016;DHT22;7083;48.854;9.158;2022-09-01T16:12:35;29.90;57.20
14016;DHT22;7083;48.854;9.158;2022-09-01T16:15:02;30.00;55.70
14016;DHT22;7083;48.854;9.158;2022-09-01T16:17:40;29.20;57.20
14016;DHT22;7083;48.854;9.158;2022-09-01T16:20:15;28.70;59.00
14016;DHT22;7083;48.854;9.158;2022-09-01T16:22:51;28.00;60.90
14016;DHT22;7083;48.854;9.158;2022-09-01T16:25:24;26.60;62.90
14016;DHT22;7083;48.854;9.158;2022-09-01T16:27:51;26.60;64.00
14016;DHT22;7083;48.854;9.158;2022-09-01T16:32:48;26.10;64.70
14016;DHT22;7083;48.854;9.158;2022-09-01T16:35:16;25.00;67.80
14016;DHT22;7083;48.854;9.158;2022-09-01T16:37:47;24.80;68.70
14016;DHT22;7083;48.854;9.158;2022-09-01T16:43:00;24.40;70.90
14016;DHT22;7083;48.854;9.158;2022-09-01T16:53:16;23.80;72.00
14016;DHT22;7083;48.854;9.158;2022-09-01T16:58:25;22.90;74.40
14016;DHT22;7083;48.854;9.158;2022-09-01T17:01:00;22.50;75.10
14016;DHT22;7083;48.854;9.158;2022-09-01T17:03:33;22.60;76.10
14016;DHT22;7083;48.854;9.158;2022-09-01T17:08:38;22.20;77.90
14016;DHT22;7083;48.854;9.158;2022-09-01T17:11:17;22.10;80.00
14016;DHT22;7083;48.854;9.158;2022-09-01T17:13:47;22.00;82.50
14016;DHT22;7083;48.854;9.158;2022-09-01T17:16:20;21.90;83.70
14016;DHT22;7083;48.854;9.158;2022-09-01T17:18:52;21.80;86.30
14016;DHT22;7083;48.854;9.158;2022-09-01T17:21:25;21.70;79.20
14016;DHT22;7083;48.854;9.158;2022-09-01T17:23:59;21.60;80.30
14016;DHT22;7083;48.854;9.158;2022-09-01T17:26:27;21.40;80.00
14016;DHT22;7083;48.854;9.158;2022-09-01T17:28:59;21.00;80.60
14016;DHT22;7083;48.854;9.158;2022-09-01T17:31:40;21.00;79.80
14016;DHT22;7083;48.854;9.158;2022-09-01T17:49:29;21.10;81.60
14016;DHT22;7083;48.854;9.158;2022-09-01T17:52:06;20.30;83.40
14016;DHT22;7083;48.854;9.158;2022-09-01T17:54:39;20.30;82.90
14016;DHT22;7083;48.854;9.158;2022-09-01T17:57:12;20.10;83.80
14016;DHT22;7083;48.854;9.158;2022-09-01T17:59:47;20.10;84.00
14016;DHT22;7083;48.854;9.158;2022-09-01T18:02:36;20.00;84.30
14016;DHT22;7083;48.854;9.158;2022-09-01T18:05:11;19.90;83.90
14016;DHT22;7083;48.854;9.158;2022-09-01T18:07:58;19.80;85.30
14016;DHT22;7083;48.854;9.158;2022-09-01T18:10:29;19.80;85.10
14016;DHT22;7083;48.854;9.158;2022-09-01T18:13:00;19.60;84.70
14016;DHT22;7083;48.854;9.158;2022-09-01T18:15:34;19.60;85.30
14016;DHT22;7083;48.854;9.158;2022-09-01T18:18:09;19.50;85.40
14016;DHT22;7083;48.854;9.158;2022-09-01T18:20:40;19.40;85.80
14016;DHT22;7083;48.854;9.158;2022-09-01T18:23:10;19.20;86.40
14016;DHT22;7083;48.854;9.158;2022-09-01T18:25:40;19.10;86.30
14016;DHT22;7083;48.854;9.158;2022-09-01T18:28:07;19.00;86.50
14016;DHT22;7083;48.854;9.158;2022-09-01T18:30:40;18.90;87.20
14016;DHT22;7083;48.854;9.158;2022-09-01T18:33:21;18.80;87.50